Flight Track Log - Related Links

Times and Time Zones

All times are in EDT time to prevent confusion due to time zone crossing. See the UAL6025 flight status page for this flight to view local times or setup timezone preferences in your user account.

Time Position Orientation Groundspeed Altitude Reporting Facility
EDT Latitude Longitude Course Direction KTS MPH feet Rate Location/Type
Sun 05:54:14 PM 38.9500 -77.5500 288° West 219 252 2,200  Level Potomac TRACON
Sun 05:54:53 PM 38.9233 -77.6275 246° West 242 278 3,800 2,424 Climbing Washington Center
Sun 05:55:53 PM 38.9033 -77.6908 248° West 269 310 6,200 2,550 Climbing Washington Center
Sun 05:56:53 PM 38.8581 -77.7831 238° Southwest 274 315 8,900 2,200 Climbing Washington Center
Sun 05:57:53 PM 38.8086 -77.8642 232° Southwest 286 329 10,600 1,500 Climbing Washington Center
Sun 05:58:53 PM 38.7961 -77.9728 262° West 297 342 11,900 1,450 Climbing Washington Center
Sun 05:59:00 PM 38.8362 -78.1448 288° West  Level FlightAware
Sun 05:59:53 PM 38.8247 -78.0936 287° West 307 353 13,500  Level Washington Center
Sun 06:00:53 PM 38.8536 -78.2119 287° West 334 384 15,200 1,700 Climbing Washington Center
Sun 06:01:53 PM 38.8528 -78.3425 270° West 355 409 16,900 1,450 Climbing Washington Center
Sun 06:02:53 PM 38.8519 -78.4678 270° West 360 414 18,100 1,450 Climbing Washington Center
Sun 06:03:53 PM 38.8508 -78.5931 269° West 360 414 19,800 1,700 Climbing Washington Center
Sun 06:04:53 PM 38.8500 -78.7156 270° West 360 414 21,500 1,700 Climbing Washington Center
Sun 06:05:53 PM 38.8489 -78.8383 269° West 354 407 23,200 1,650 Climbing Washington Center
Sun 06:06:53 PM 38.8456 -78.9553 268° West 343 395 24,800 1,550 Climbing Washington Center
Sun 06:07:53 PM 38.8442 -79.0725 269° West 343 395 26,300 1,500 Climbing Washington Center
Sun 06:08:53 PM 38.8431 -79.1872 269° West 337 388 27,800 1,450 Climbing Washington Center
Sun 06:09:53 PM 38.8250 -79.2983 258° West 332 382 29,200 1,450 Climbing Washington Center
Sun 06:10:53 PM 38.8050 -79.4064 257° West 326 375 30,700 1,350 Climbing Washington Center
Sun 06:11:53 PM 38.7850 -79.5119 256° West 316 364 31,900 1,050 Climbing Washington Center
Sun 06:12:53 PM 38.7669 -79.6122 257° West 316 364 32,800 800 Climbing Washington Center
Sun 06:13:53 PM 38.7486 -79.7256 258° West 321 369 33,500 850 Climbing Washington Center
Sun 06:14:53 PM 38.7258 -79.8361 255° West 321 369 34,500 750 Climbing Washington Center
Sun 06:15:53 PM 38.7050 -79.9575 258° West 321 369 35,000 250 Climbing Washington Center
Sun 06:16:53 PM 38.6817 -80.0756 256° West 328 377 35,000  Level Washington Center
Sun 06:17:53 PM 38.6583 -80.1967 256° West 348 400 35,000 303 Level Washington Center
Sun 06:18:32 PM 38.6425 -80.2772 256° West 365 420 35,500 594 Climbing Indianapolis Center
Sun 06:19:34 PM 38.6175 -80.4031 256° West 366 421 36,000 242 Climbing Indianapolis Center
Sun 06:20:36 PM 38.5947 -80.5292 257° West 364 419 36,000  Level Indianapolis Center
Sun 06:21:38 PM 38.5692 -80.6603 256° West 377 434 36,000  Level Indianapolis Center
Sun 06:22:40 PM 38.5444 -80.7903 256° West 377 434 36,000  Level Indianapolis Center
Sun 06:23:42 PM 38.5183 -80.9219 256° West 379 436 36,000  Level Indianapolis Center
Sun 06:24:44 PM 38.4931 -81.0536 256° West 380 437 36,000  Level Indianapolis Center
Sun 06:25:46 PM 38.4614 -81.2128 256° West 384 442 36,000  Level Indianapolis Center
Sun 06:26:48 PM 38.4344 -81.3456 256° West 383 441 36,000  Level Indianapolis Center
Sun 06:27:50 PM 38.4089 -81.4797 256° West 385 443 36,000  Level Indianapolis Center
Sun 06:28:52 PM 38.3817 -81.6136 255° West 386 444 36,000  Level Indianapolis Center
Sun 06:29:55 PM 38.3542 -81.7472 255° West 386 444 36,000  Level Indianapolis Center
Sun 06:30:57 PM 38.3450 -81.8867 265° West 392 451 36,000  Level Indianapolis Center
Sun 06:31:59 PM 38.3389 -82.0281 267° West 398 458 36,000  Level Indianapolis Center
Sun 06:33:01 PM 38.3336 -82.1700 267° West 400 460 36,000  Level Indianapolis Center
Sun 06:34:03 PM 38.3236 -82.3389 266° West 398 458 36,000  Level Indianapolis Center
Sun 06:35:05 PM 38.3164 -82.4806 266° West 399 459 36,000  Level Indianapolis Center
Sun 06:36:07 PM 38.3083 -82.6164 266° West 400 460 36,000  Level Indianapolis Center
Sun 06:37:09 PM 38.3006 -82.7578 266° West 400 460 36,000  Level Indianapolis Center
Sun 06:38:11 PM 38.2903 -82.9242 266° West 403 464 36,000  Level Indianapolis Center
Sun 06:39:13 PM 38.2814 -83.0658 265° West 403 464 36,000  Level Indianapolis Center
Sun 06:40:15 PM 38.2731 -83.2089 266° West 405 466 36,000  Level Indianapolis Center
Sun 06:41:17 PM 38.2644 -83.3508 266° West 403 464 36,000  Level Indianapolis Center
Sun 06:42:19 PM 38.2544 -83.4939 265° West 405 466 36,000  Level Indianapolis Center
Sun 06:43:21 PM 38.2431 -83.6628 265° West 409 471 36,000  Level Indianapolis Center
Sun 06:44:23 PM 38.2342 -83.8050 265° West 407 468 36,000  Level Indianapolis Center
Sun 06:45:25 PM 38.2244 -83.9492 265° West 408 470 36,000  Level Indianapolis Center
Sun 06:46:27 PM 38.2144 -84.0917 265° West 407 468 36,000  Level Indianapolis Center
Sun 06:47:29 PM 38.2044 -84.2353 265° West 409 471 36,000  Level Indianapolis Center
Sun 06:48:31 PM 38.1936 -84.3781 265° West 407 468 36,000  Level Indianapolis Center
Sun 06:49:33 PM 38.1814 -84.5469 265° West 409 471 36,000  Level Indianapolis Center
Sun 06:50:35 PM 38.1694 -84.6917 264° West 412 474 36,000  Level Indianapolis Center
Sun 06:51:37 PM 38.1594 -84.8353 265° West 409 471 36,000  Level Indianapolis Center
Sun 06:52:40 PM 38.1497 -84.9772 265° West 405 466 36,000  Level Indianapolis Center
Sun 06:53:42 PM 38.1381 -85.1203 264° West 407 468 36,000  Level Indianapolis Center
Sun 06:54:44 PM 38.1267 -85.2781 265° West 407 468 36,000  Level Indianapolis Center
Sun 06:55:46 PM 38.1144 -85.4222 264° West 409 471 36,000  Level Indianapolis Center
Sun 06:56:48 PM 38.1044 -85.5658 265° West 408 470 36,000  Level Indianapolis Center
Sun 06:57:50 PM 38.0925 -85.7086 264° West 407 468 36,000  Level Indianapolis Center
Sun 06:58:52 PM 38.0836 -85.8522 266° West 407 468 36,000  Level Indianapolis Center
Sun 06:59:54 PM 38.0714 -86.0258 265° West 410 472 36,000  Level Indianapolis Center
Sun 07:00:56 PM 38.0600 -86.1700 264° West 409 471 36,000  Level Indianapolis Center
Sun 07:01:58 PM 38.0483 -86.3175 264° West 417 480 36,000  Level Indianapolis Center
Sun 07:03:00 PM 38.0364 -86.4672 264° West 416 479 36,000  Level Indianapolis Center
Sun 07:04:02 PM 38.0258 -86.6114 265° West 417 480 36,000  Level Indianapolis Center
Sun 07:05:04 PM 38.0139 -86.7583 264° West 417 480 36,000  Level Indianapolis Center
Sun 07:06:05 PM 38.0011 -86.9050 264° West 414 476 36,000  Level Indianapolis Center
Sun 07:07:07 PM 37.9892 -87.0531 264° West 415 478 36,000  Level Indianapolis Center
Sun 07:08:09 PM 37.9761 -87.2022 264° West 418 481 36,000  Level Indianapolis Center
Sun 07:09:11 PM 37.9644 -87.3511 264° West 420 483 36,000  Level Indianapolis Center
Sun 07:10:13 PM 37.9492 -87.5294 264° West 421 484 36,000  Level Indianapolis Center
Sun 07:11:15 PM 37.9353 -87.6786 263° West 423 487 36,000  Level Indianapolis Center
Sun 07:12:17 PM 37.9211 -87.8292 263° West 426 490 36,000  Level Indianapolis Center
Sun 07:13:19 PM 37.9072 -87.9772 263° West 423 487 36,000  Level Indianapolis Center
Sun 07:13:38 PM 37.9053 -88.0067 265° West 423 487 36,000  Level Kansas Center
Sun 07:14:40 PM 37.8908 -88.1531 263° West 419 482 36,000  Level Kansas Center
Sun 07:15:41 PM 37.8739 -88.3281 263° West 416 479 36,000  Level Kansas Center
Sun 07:16:43 PM 37.8603 -88.4733 263° West 414 476 36,000  Level Kansas Center
Sun 07:17:47 PM 37.8458 -88.6172 263° West 413 475 36,000  Level Kansas Center
Sun 07:18:48 PM 37.8317 -88.7719 263° West 412 474 36,000  Level Kansas Center
Sun 07:19:49 PM 37.8164 -88.9142 262° West 410 472 36,000  Level Kansas Center
Sun 07:20:53 PM 37.8000 -89.0550 262° West 408 470 36,000  Level Kansas Center
Sun 07:21:54 PM 37.7853 -89.1983 263° West 409 471 36,000  Level Kansas Center
Sun 07:22:55 PM 37.7708 -89.3442 263° West 413 475 36,000  Level Kansas Center
Sun 07:23:58 PM 37.7547 -89.4889 262° West 413 475 36,000  Level Kansas Center
Sun 07:24:59 PM 37.7397 -89.6328 263° West 412 474 36,000  Level Kansas Center
Sun 07:26:03 PM 37.7214 -89.8036 262° West 410 472 36,000  Level Kansas Center
Sun 07:27:05 PM 37.7053 -89.9469 262° West 411 473 36,000  Level Kansas Center
Sun 07:28:06 PM 37.6894 -90.0894 262° West 410 472 36,000  Level Kansas Center
Sun 07:29:10 PM 37.6739 -90.2278 262° West 412 474 36,000  Level Kansas Center
Sun 07:30:10 PM 37.6608 -90.3736 264° West 409 471 36,000  Level Kansas Center
Sun 07:31:13 PM 37.6419 -90.5178 261° West 411 473 36,000  Level Kansas Center
Sun 07:32:14 PM 37.6086 -90.6861 256° West 414 476 36,000  Level Kansas Center
Sun 07:33:15 PM 37.5814 -90.8236 256° West 411 473 36,000  Level Kansas Center
Sun 07:34:17 PM 37.5550 -90.9644 257° West 410 472 36,000  Level Kansas Center
Sun 07:35:19 PM 37.5289 -91.1044 257° West 410 472 36,000  Level Kansas Center
Sun 07:36:24 PM 37.5011 -91.2442 256° West 410 472 36,000  Level Kansas Center
Sun 07:37:24 PM 37.4761 -91.3825 257° West 408 470 36,000  Level Kansas Center
Sun 07:38:27 PM 37.4481 -91.5225 256° West 408 470 36,000  Level Kansas Center
Sun 07:39:29 PM 37.4161 -91.6881 256° West 407 468 36,000  Level Kansas Center
Sun 07:40:31 PM 37.3889 -91.8244 256° West 401 461 36,000  Level Kansas Center
Sun 07:41:32 PM 37.3631 -91.9597 257° West 398 458 36,000  Level Kansas Center
Sun 07:42:35 PM 37.3353 -92.0953 256° West 398 458 36,000  Level Kansas Center
Sun 07:43:36 PM 37.3094 -92.2311 257° West 397 457 36,000  Level Kansas Center
Sun 07:44:37 PM 37.2814 -92.3653 255° West 396 456 36,000  Level Kansas Center
Sun 07:45:41 PM 37.2544 -92.5006 256° West 396 456 36,000  Level Kansas Center
Sun 07:46:42 PM 37.2278 -92.6347 256° West 394 453 36,000  Level Kansas Center
Sun 07:47:43 PM 37.1950 -92.7958 256° West 396 456 36,000  Level Kansas Center
Sun 07:48:47 PM 37.1664 -92.9294 255° West 395 455 36,000  Level Kansas Center
Sun 07:49:47 PM 37.1375 -93.0636 255° West 396 456 36,000  Level Kansas Center
Sun 07:50:52 PM 37.1094 -93.1967 255° West 395 455 36,000  Level Kansas Center
Sun 07:51:53 PM 37.0811 -93.3289 255° West 394 453 36,000  Level Kansas Center
Sun 07:52:54 PM 37.0533 -93.4633 256° West 396 456 36,000  Level Kansas Center
Sun 07:53:57 PM 37.0278 -93.5983 257° West 397 457 36,000  Level Kansas Center
Sun 07:55:00 PM 36.9925 -93.7558 254° West 392 451 36,000  Level Kansas Center
Sun 07:56:02 PM 36.9689 -93.8669 255° West 390 449 36,000 -246 Level Kansas Center
Sun 07:57:02 PM 36.9344 -94.0239 255° West 390 449 35,500 -1,210 Descending Kansas Center
Sun 07:58:06 PM 36.9058 -94.1528 255° West 387 445 33,500 -2,160 Descending Kansas Center
Sun 07:59:07 PM 36.8761 -94.2886 255° West 399 459 31,000 -2,508 Descending Kansas Center
Sun 08:00:08 PM 36.8444 -94.4281 254° West 415 478 28,400 -2,468 Descending Kansas Center
Sun 08:01:11 PM 36.8131 -94.5675 254° West 416 479 25,900 -2,468 Descending Kansas Center
Sun 08:02:12 PM 36.7811 -94.7089 254° West 421 484 23,300 -2,488 Descending Kansas Center
Sun 08:03:14 PM 36.7500 -94.8458 254° West 416 479 20,800 -2,619 Descending Kansas Center
Sun 08:04:18 PM 36.7156 -95.0033 255° West 399 459 17,800 -2,659 Descending Kansas Center
Sun 08:04:42 PM 36.7025 -95.0539 252° West 386 444 16,900 -2,286 Descending Kansas Center
Sun 08:05:00 PM 36.6936 -95.0917 254° West 379 436 16,200 -2,432 Descending Kansas Center
Sun 08:05:19 PM 36.6869 -95.1272 257° West 380 437 15,400 -2,557 Descending Kansas Center
Sun 08:06:01 PM 36.6647 -95.2131 252° West 362 417 13,600 -2,419 Descending Kansas Center
Sun 08:06:21 PM 36.6494 -95.2419 237° Southwest 368 423 12,900 -2,000 Descending Kansas Center
Sun 08:07:01 PM 36.5992 -95.3031 224° Southwest 343 395 11,600 -1,742 Descending Kansas Center
Sun 08:07:23 PM 36.5842 -95.3256 230° Southwest 342 394 11,100 -1,147 Descending Kansas Center
Sun 08:08:09 PM 36.5428 -95.3992 235° Southwest 287 330 10,300 -984 Descending Kansas Center
Sun 08:08:24 PM 36.5394 -95.4094 248° West 302 348 10,100 -1,220 Descending Kansas Center
Sun 08:09:08 PM 36.5039 -95.4800 238° Southwest 265 305 9,100 -1,452 Descending Kansas Center
Sun 08:09:26 PM 36.4939 -95.5036 242° Southwest 273 314 8,600 -1,500 Descending Kansas Center
Sun 08:10:08 PM 36.4647 -95.5606 238° Southwest 276 318 7,600 -1,475 Descending Kansas Center
Sun 08:10:27 PM 36.4550 -95.5814 240° Southwest 270 311 7,100 -1,548 Descending Kansas Center
Sun 08:11:10 PM 36.4256 -95.6386 237° Southwest 268 308 6,000 -1,355 Descending Kansas Center
Sun 08:11:29 PM 36.4164 -95.6589 241° Southwest 268 308 5,700 -1,017 Descending Kansas Center
Sun 08:12:09 PM 36.3881 -95.7161 238° Southwest 262 302 5,000 -984 Descending Kansas Center
Sun 08:12:30 PM 36.3792 -95.7356 240° Southwest 264 304 4,700 -1,200 Descending Kansas Center
Sun 08:13:09 PM 36.3486 -95.7914 236° Southwest 244 281 3,800 -1,048 Descending Kansas Center
Sun 08:13:33 PM 36.3419 -95.8058 240° Southwest 255 293 3,600 -689 Descending Kansas Center
Sun 08:14:10 PM 36.3075 -95.8514 227° Southwest 221 254 3,100 -581 Descending Kansas Center
Sun 08:14:35 PM 36.3008 -95.8631 235° Southwest 237 273 3,000 -762 Descending Kansas Center
Sun 08:15:13 PM 36.2708 -95.8897 216° Southwest 151 174 2,300 -1,161 Descending Kansas Center
Sun 08:15:37 PM 36.2569 -95.8950 197° South 179 206 1,800 -1,000 Descending Kansas Center
Sun 08:16:13 PM 36.2358 -95.8969 184° South 114 131 1,300 -787 Descending Kansas Center
Sun 08:16:38 PM 36.2225 -95.8981 184° South 145 167 1,000 -345 Descending Kansas Center
Sun 08:17:40 PM 36.1903 -95.9006 184° South 138 159 800 -194 Descending Kansas Center
Sun 08:19:00 PM 36.1833 -95.8833 180° South  Level FlightAware
Sun 08:26:00 PM 36.1984 -95.8881 180° South  Level Estimated

Login

Don't have an account? Register now (free) for customized features, flight alerts, and more!